Cheney, KS

12:28 PM CDT on September 17, 2014 (GMT -0500)
Col Jabara | Change Station
CLOSE
Current Station
Airport
Location: Wichita Jabara,
Elevation: 1421 ft
Nearby Weather Stations

Elev 1421 ft 37.75 °N, 97.22 °W | Updated 34 minutes ago

Clear
Clear
86 °F
Feels Like 88 °F
N
10
Wind Variable Wind from SSW

Today
High -- | Low -- °F
--% Chance of Precip.
Yesterday
High -- | Low -- °F
Precip. -- in
7:14 AM 7:35 PM
Waning Crescent, 34% visible
Pressure 29.86 in
Visibility 10.0 miles
Clouds Clear
Heat Index 88 °F
Dew Point 65 °F
Humidity 49%
Rainfall 0.00 in
Snow Depth Not available.
UV 7 out of 12
Pollen 7.90 out of 12
Air Quality Not available.
Flu Activity Not available.
METAR KAAO 171654Z AUTO 21009KT 10SM CLR 30/18 A2990 RMK AO2 SLP111 T03000183

More Conditions Fewer Conditions

Pressure 29.86 in
Visibility 10.0 miles
Clouds Clear
Heat Index 88 °F
Dew Point 65 °F
Humidity 49%
Rainfall 0.00 in
Snow Depth Not available.
UV 7 out of 12
Pollen 7.90 out of 12
Air Quality Not available.
Flu Activity Not available.
METAR KAAO 171654Z AUTO 21009KT 10SM CLR 30/18 A2990 RMK AO2 SLP111 T03000183

More Conditions Fewer Conditions

10-Day Weather Forecast

Almanac

Astronomy

Sep. 17, 2014 Rise Set
Actual Time 7:14 AM CDT 7:35 PM CDT
Civil Twilight 6:48 AM CDT 8:01 PM CDT
Nautical Twilight 6:17 AM CDT 8:32 PM CDT
Astronomical Twilight 5:46 AM CDT 9:03 PM CDT
Moon 1:20 AM CDT 3:41 PM CDT
Length of Visible Light 13h 13m
Length of Day
12h 21m
Tomorrow will be 2m 23s shorter.
Waning Crescent, 34% of the Moon is Illuminated
Today
Waning Crescent
Sep 24
New
Oct 1
First Quarter
Oct 8
Full
Oct 15
Last Quarter

Today's Extremes

State Highs State Lows

Community

WunderPhotos

Upload Photos

1,754,107 photos uploaded!

Nearby

Snow Depth

Station Depth Elevation
No new snow has been reported.

Earthquake Activity

City Distance Mag. Time & Date
Perry, Oklahoma 104 miles 3.5 8:21 AM CDT
2014-09-17
Yale, Oklahoma 115 miles 3.3 7:02 AM CDT
2014-09-17
Yale, Oklahoma 115 miles 3.0 6:58 AM CDT
2014-09-17
Medford, Oklahoma 55 miles 3.2 6:09 AM CDT
2014-09-17
Minimum magnitude displayed is 2.5.

Coastal Water Temperatures

Place Temperature
No Stations Reporting

Nearby Weather Stations